Time;durP1;ratioP1;P1;durP2;ratioP2;P2;SDS_P1;SDS_P2;PMS_P1;PMS_P2;Temp;Humidity;BMP_temperature;BMP_pressure;BME280_temperature;BME280_humidity;BME280_pressure;Samples;Min_cycle;Max_cycle;Signal;HPM_P1;HPM_P2
2023/10/29 00:01:28;;;;;;;3.15;2.53;;;;;;;6.99;99.93;100441.78;5013207;28;20584;-69
2023/10/29 00:03:53;;;;;;;3.53;2.42;;;;;;;6.96;100.00;100443.97;5014330;28;20029;-69
2023/10/29 00:06:19;;;;;;;2.85;2.55;;;;;;;7.04;99.21;100442.03;5013315;28;20040;-69
2023/10/29 00:08:44;;;;;;;3.35;2.50;;;;;;;6.94;99.93;100436.13;5014372;28;20106;-69
2023/10/29 00:11:12;;;;;;;6.00;2.42;;;;;;;7.01;99.53;100430.88;5014192;28;20535;-69
2023/10/29 00:13:37;;;;;;;3.45;2.60;;;;;;;6.84;100.00;100432.91;5014038;28;20130;-69
2023/10/29 00:16:02;;;;;;;4.18;2.38;;;;;;;6.79;100.00;100424.63;5014636;28;20045;-69
2023/10/29 00:18:28;;;;;;;3.47;2.33;;;;;;;6.95;100.00;100424.41;5014767;28;20041;-69
2023/10/29 00:20:53;;;;;;;2.40;2.15;;;;;;;6.90;99.88;100421.47;5014524;28;20045;-69
2023/10/29 00:23:18;;;;;;;3.75;2.10;;;;;;;6.97;99.63;100421.56;5014406;28;20061;-69
2023/10/29 00:25:44;;;;;;;2.38;2.17;;;;;;;7.00;99.53;100421.19;5013124;28;20034;-69
2023/10/29 00:28:11;;;;;;;4.03;2.15;;;;;;;7.21;98.02;100418.56;5013076;28;20029;-69
2023/10/29 00:30:37;;;;;;;2.67;2.08;;;;;;;7.18;97.87;100416.28;5013148;28;20038;-69
2023/10/29 00:33:02;;;;;;;2.97;1.88;;;;;;;7.09;98.06;100419.25;5014280;28;20052;-69
2023/10/29 00:35:28;;;;;;;2.13;1.80;;;;;;;6.94;98.23;100395.19;5012791;28;20037;-69
2023/10/29 00:37:53;;;;;;;4.53;2.03;;;;;;;7.07;97.98;100396.19;5012501;28;20072;-69
2023/10/29 00:40:18;;;;;;;2.80;1.92;;;;;;;7.13;98.10;100412.50;5011628;28;20382;-69
2023/10/29 00:42:44;;;;;;;2.55;2.08;;;;;;;7.16;97.31;100409.47;5013299;28;20034;-69
2023/10/29 00:45:09;;;;;;;2.95;2.30;;;;;;;7.19;97.78;100401.06;5013115;28;20615;-69
2023/10/29 00:47:36;;;;;;;3.75;2.20;;;;;;;7.02;98.36;100385.22;5013474;28;20058;-69
2023/10/29 00:50:02;;;;;;;2.33;2.00;;;;;;;7.25;97.14;100408.31;5015428;28;20485;-69
2023/10/29 00:52:28;;;;;;;3.85;2.28;;;;;;;7.19;97.55;100398.41;5013607;28;20042;-69
2023/10/29 00:54:54;;;;;;;3.20;1.92;;;;;;;7.06;98.28;100389.19;5013225;28;20060;-69
2023/10/29 00:57:20;;;;;;;2.88;2.00;;;;;;;7.32;96.74;100398.56;5011690;28;20034;-69
2023/10/29 00:59:47;;;;;;;2.95;1.88;;;;;;;7.19;97.24;100393.03;5012262;28;20043;-69
2023/10/29 01:02:13;;;;;;;3.00;2.00;;;;;;;7.26;96.77;100399.31;5012587;28;20026;-69
2023/10/29 01:04:38;;;;;;;3.17;1.80;;;;;;;7.30;96.89;100380.00;5013285;28;20084;-69
2023/10/29 01:07:05;;;;;;;2.10;1.83;;;;;;;7.46;96.11;100380.78;5013289;28;20034;-69
2023/10/29 01:09:31;;;;;;;2.58;1.80;;;;;;;7.39;96.01;100369.19;5012385;28;20506;-69
2023/10/29 01:11:56;;;;;;;4.07;1.73;;;;;;;7.35;96.43;100373.25;5014134;28;20037;-69
2023/10/29 01:14:23;;;;;;;3.15;1.90;;;;;;;7.23;96.83;100365.72;5012221;28;20067;-69
2023/10/29 01:16:48;;;;;;;4.32;2.08;;;;;;;7.18;97.56;100368.09;5013559;28;20481;-69
2023/10/29 01:19:14;;;;;;;1.98;1.63;;;;;;;7.12;97.51;100360.84;5011982;28;20041;-69
2023/10/29 01:21:39;;;;;;;3.42;1.65;;;;;;;7.23;96.88;100359.53;5012392;28;20037;-69
2023/10/29 01:24:05;;;;;;;2.88;1.52;;;;;;;7.20;97.00;100360.72;5013524;28;20072;-68
2023/10/29 01:26:31;;;;;;;1.80;1.38;;;;;;;7.13;97.50;100359.84;5011747;28;20378;-69
2023/10/29 01:28:57;;;;;;;1.75;1.50;;;;;;;7.22;97.18;100363.25;5011869;28;20033;-69
2023/10/29 01:31:22;;;;;;;1.65;1.50;;;;;;;7.29;96.51;100348.09;5013118;28;20041;-69
2023/10/29 01:33:47;;;;;;;2.78;1.70;;;;;;;7.26;96.46;100343.09;5012916;28;20373;-69
2023/10/29 01:36:13;;;;;;;3.38;1.52;;;;;;;7.28;96.09;100346.41;5012685;28;20025;-69
2023/10/29 01:38:38;;;;;;;2.20;1.48;;;;;;;7.24;96.17;100343.28;5013983;28;20029;-69
2023/10/29 01:41:03;;;;;;;1.58;1.10;;;;;;;7.25;95.84;100336.06;5010740;28;20042;-69
2023/10/29 01:43:29;;;;;;;1.95;1.40;;;;;;;7.28;96.03;100323.16;5012522;28;20061;-69
2023/10/29 01:45:54;;;;;;;1.50;1.30;;;;;;;7.17;96.04;100323.66;5011369;28;20113;-69
2023/10/29 01:48:23;;;;;;;3.35;1.63;;;;;;;7.05;96.79;100323.31;5012273;28;20032;-69
2023/10/29 01:50:50;;;;;;;1.42;1.15;;;;;;;7.16;96.75;100321.16;5012748;28;20358;-69
2023/10/29 01:53:15;;;;;;;3.00;1.30;;;;;;;7.05;96.45;100290.38;4994857;28;20095;-69
2023/10/29 01:55:41;;;;;;;1.63;1.10;;;;;;;7.20;96.06;100306.41;5027969;28;20029;-69
2023/10/29 01:58:06;;;;;;;1.88;1.20;;;;;;;7.08;96.27;100306.03;5023869;28;20460;-69
2023/10/29 02:00:32;;;;;;;1.88;1.20;;;;;;;7.01;96.34;100300.63;5012877;28;20030;-69
2023/10/29 02:02:57;;;;;;;3.33;1.40;;;;;;;7.28;95.34;100303.59;5011413;28;20033;-69
2023/10/29 02:05:22;;;;;;;1.73;1.20;;;;;;;7.29;94.63;100305.25;5011438;28;20034;-69
2023/10/29 02:07:48;;;;;;;1.33;1.13;;;;;;;7.16;94.88;100303.28;5011085;28;20038;-69
2023/10/29 02:10:14;;;;;;;3.17;1.30;;;;;;;7.06;95.69;100295.53;5011939;28;20073;-69
2023/10/29 02:12:39;;;;;;;1.27;1.02;;;;;;;7.00;95.79;100293.63;5011019;28;20034;-69
2023/10/29 02:15:05;;;;;;;3.28;1.42;;;;;;;7.18;95.00;100287.00;5012385;28;20026;-69
2023/10/29 02:17:31;;;;;;;3.53;1.20;;;;;;;7.03;95.48;100285.22;5011338;28;20508;-69
2023/10/29 02:19:57;;;;;;;2.13;1.17;;;;;;;7.17;95.11;100286.19;5012289;28;20041;-70
2023/10/29 02:22:23;;;;;;;3.15;1.35;;;;;;;7.26;94.10;100297.63;5010835;28;20049;-69
2023/10/29 02:24:49;;;;;;;1.40;1.30;;;;;;;7.22;94.02;100286.47;5011364;28;20030;-69
2023/10/29 02:27:14;;;;;;;1.50;1.15;;;;;;;7.14;94.53;100291.09;5011825;28;20064;-69
2023/10/29 02:29:40;;;;;;;1.40;1.30;;;;;;;7.10;95.21;100290.63;5011536;28;20034;-69
2023/10/29 02:32:05;;;;;;;2.50;1.33;;;;;;;6.87;95.40;100274.75;4978781;28;20044;-69
2023/10/29 02:34:30;;;;;;;3.30;1.38;;;;;;;6.91;95.97;100268.00;5011986;28;20065;-69
2023/10/29 02:36:56;;;;;;;2.50;1.30;;;;;;;7.12;95.44;100279.75;5010243;28;20047;-69
2023/10/29 02:39:21;;;;;;;1.80;1.20;;;;;;;6.90;94.33;100279.72;5011763;28;20105;-69
2023/10/29 02:41:46;;;;;;;1.95;1.23;;;;;;;7.20;94.81;100275.09;5011455;28;20505;-69
2023/10/29 02:44:12;;;;;;;2.75;1.40;;;;;;;6.90;95.21;100273.53;5010105;28;20041;-69
2023/10/29 02:46:37;;;;;;;2.90;1.25;;;;;;;7.22;94.27;100274.94;5012259;28;20574;-69
2023/10/29 02:49:03;;;;;;;3.05;1.50;;;;;;;7.24;93.20;100262.16;5011860;28;20074;-69
2023/10/29 02:51:28;;;;;;;1.98;1.20;;;;;;;7.25;93.14;100271.84;5011900;28;20088;-69
2023/10/29 02:53:54;;;;;;;2.63;1.40;;;;;;;7.16;94.08;100273.00;5012024;28;20137;-69
2023/10/29 02:56:19;;;;;;;3.00;1.38;;;;;;;7.26;92.71;100269.00;5015420;28;20038;-69
2023/10/29 02:58:44;;;;;;;2.60;1.25;;;;;;;6.77;95.19;100258.16;5015000;28;20033;-69
2023/10/29 03:01:10;;;;;;;2.97;1.45;;;;;;;6.97;94.86;100261.06;5011638;28;20057;-69
2023/10/29 03:03:36;;;;;;;1.48;1.23;;;;;;;7.23;93.38;100264.03;5010194;28;20034;-69
2023/10/29 03:06:08;;;;;;;2.28;1.15;;;;;;;7.16;93.30;100273.00;5011749;28;20034;-69
2023/10/29 03:08:35;;;;;;;1.73;1.40;;;;;;;6.88;95.37;100276.38;5011410;28;20076;-69
2023/10/29 03:11:01;;;;;;;1.90;1.17;;;;;;;7.03;94.13;100261.16;5011656;28;20112;-69
2023/10/29 03:13:26;;;;;;;2.97;1.40;;;;;;;7.20;92.32;100271.59;5010952;28;20521;-69
2023/10/29 03:15:52;;;;;;;1.65;1.20;;;;;;;6.96;93.99;100257.56;5011102;28;20044;-69
2023/10/29 03:18:17;;;;;;;2.38;1.40;;;;;;;7.26;92.52;100249.44;5009980;28;20053;-69
2023/10/29 03:20:42;;;;;;;2.75;1.30;;;;;;;6.97;93.04;100251.19;5011107;28;20108;-69
2023/10/29 03:23:08;;;;;;;3.28;1.50;;;;;;;7.16;92.91;100251.59;5009938;28;20037;-69
2023/10/29 03:25:34;;;;;;;2.92;1.58;;;;;;;7.27;92.61;100238.53;5011018;28;20576;-69
2023/10/29 03:28:00;;;;;;;1.88;1.40;;;;;;;7.07;93.04;100241.00;5011078;28;20044;-69
2023/10/29 03:30:25;;;;;;;1.70;1.25;;;;;;;6.52;94.29;100202.38;5011013;28;20026;-69
2023/10/29 03:32:50;;;;;;;1.85;1.20;;;;;;;7.03;93.64;100237.06;5010974;28;20080;-69
2023/10/29 03:35:16;;;;;;;1.88;1.23;;;;;;;7.02;93.88;100234.59;5010903;28;20509;-69
2023/10/29 03:37:42;;;;;;;3.10;1.20;;;;;;;7.14;92.82;100238.41;4993462;28;20056;-69
2023/10/29 03:40:08;;;;;;;2.33;1.40;;;;;;;6.91;93.48;100232.41;5010809;28;20576;-69
2023/10/29 03:42:34;;;;;;;2.53;1.50;;;;;;;7.05;92.76;100231.50;5009801;28;20501;-69
2023/10/29 03:44:59;;;;;;;3.67;1.30;;;;;;;6.95;92.95;100237.16;5011379;28;20036;-69
2023/10/29 03:47:25;;;;;;;2.38;1.50;;;;;;;6.94;93.26;100227.50;5009923;28;20384;-69
2023/10/29 03:49:50;;;;;;;1.85;1.42;;;;;;;7.18;92.17;100247.69;5011062;28;20053;-69
2023/10/29 03:52:15;;;;;;;2.83;1.58;;;;;;;7.17;91.64;100245.22;5011730;28;20065;-69
2023/10/29 03:54:41;;;;;;;3.08;1.50;;;;;;;7.11;92.25;100243.31;5009813;28;20041;-69
2023/10/29 03:57:07;;;;;;;1.88;1.40;;;;;;;7.26;91.25;100260.97;5011739;28;20393;-69
2023/10/29 03:59:34;;;;;;;5.38;1.40;;;;;;;7.02;92.41;100256.00;5011468;28;20049;-69
2023/10/29 04:01:59;;;;;;;2.80;1.65;;;;;;;7.04;92.36;100252.09;5011482;28;20489;-69
2023/10/29 04:04:24;;;;;;;5.55;1.38;;;;;;;7.14;92.74;100254.44;5027038;28;20053;-69
2023/10/29 04:06:50;;;;;;;1.83;1.20;;;;;;;6.85;92.35;100244.66;5009963;28;20037;-69
2023/10/29 04:09:15;;;;;;;4.70;1.70;;;;;;;7.17;92.15;100246.06;5009680;28;20037;-69
2023/10/29 04:11:40;;;;;;;2.55;1.52;;;;;;;6.76;93.18;100245.81;5010736;28;20124;-69
2023/10/29 04:14:06;;;;;;;3.50;1.60;;;;;;;6.88;93.24;100257.66;5010426;28;20038;-69
2023/10/29 04:16:33;;;;;;;3.13;1.65;;;;;;;7.36;91.45;100243.78;5012294;28;20478;-69
2023/10/29 04:18:58;;;;;;;3.20;1.38;;;;;;;7.11;91.40;100240.63;5014157;28;20029;-69
2023/10/29 04:21:24;;;;;;;3.63;1.40;;;;;;;6.96;92.62;100228.16;4996259;28;20034;-69
2023/10/29 04:23:50;;;;;;;2.15;1.17;;;;;;;7.02;91.29;100229.25;5010981;28;20034;-69
2023/10/29 04:26:15;;;;;;;3.28;1.45;;;;;;;7.39;89.96;100225.47;5012139;28;20058;-69
2023/10/29 04:28:41;;;;;;;2.35;1.40;;;;;;;7.28;89.96;100220.63;5012218;28;20034;-69
2023/10/29 04:31:06;;;;;;;2.95;1.42;;;;;;;6.90;91.78;100218.19;5013795;28;20098;-69
2023/10/29 04:33:32;;;;;;;2.63;1.58;;;;;;;6.94;92.70;100208.78;5014103;28;20095;-69
2023/10/29 04:35:58;;;;;;;1.60;1.30;;;;;;;7.00;92.06;100213.38;5012802;28;20041;-69
2023/10/29 04:38:24;;;;;;;3.42;1.40;;;;;;;7.15;91.84;100207.97;5014319;28;20057;-69
2023/10/29 04:40:50;;;;;;;1.88;1.20;;;;;;;7.22;91.06;100213.38;5012739;28;20030;-69
2023/10/29 04:43:16;;;;;;;2.10;1.30;;;;;;;7.32;91.00;100213.03;5013017;28;20030;-69
2023/10/29 04:45:41;;;;;;;1.77;1.50;;;;;;;7.42;90.03;100205.53;5013929;28;20041;-69
2023/10/29 04:48:07;;;;;;;2.35;1.45;;;;;;;7.18;89.82;100188.00;5014628;28;20033;-69
2023/10/29 04:50:32;;;;;;;1.80;1.17;;;;;;;6.89;92.41;100186.28;5014881;28;20036;-70
2023/10/29 04:52:58;;;;;;;3.97;1.63;;;;;;;7.04;91.16;100181.72;5035116;28;20468;-69
2023/10/29 04:55:24;;;;;;;2.47;1.50;;;;;;;7.08;92.26;100172.28;5018670;28;20030;-69
2023/10/29 04:57:49;;;;;;;2.47;1.15;;;;;;;7.23;91.21;100178.41;5015002;28;20489;-69
2023/10/29 05:00:15;;;;;;;4.47;1.52;;;;;;;7.13;91.78;100171.72;5012885;28;20045;-69
2023/10/29 05:02:40;;;;;;;2.88;1.60;;;;;;;7.09;91.92;100171.28;5028746;28;20477;-69
2023/10/29 05:05:06;;;;;;;2.58;1.48;;;;;;;7.17;92.11;100160.44;5013702;28;20029;-69
2023/10/29 05:07:33;;;;;;;2.35;1.25;;;;;;;7.02;92.47;100157.03;5028052;28;20129;-69
2023/10/29 05:09:59;;;;;;;4.22;1.33;;;;;;;6.77;94.38;100141.34;5013001;28;20045;-69
2023/10/29 05:12:24;;;;;;;2.92;1.50;;;;;;;7.19;92.72;100152.22;5011613;28;20022;-69
2023/10/29 05:14:51;;;;;;;1.60;1.30;;;;;;;7.11;91.65;100147.81;5013123;28;20038;-69
2023/10/29 05:17:17;;;;;;;2.03;1.20;;;;;;;7.04;92.80;100134.38;5012039;28;20030;-69
2023/10/29 05:19:44;;;;;;;2.08;1.40;;;;;;;7.05;92.43;100130.72;5011977;28;20425;-69
2023/10/29 05:22:09;;;;;;;2.17;1.10;;;;;;;6.98;93.51;100137.81;5011813;28;20030;-69
2023/10/29 05:24:35;;;;;;;2.88;1.40;;;;;;;7.02;93.58;100125.75;5011830;28;20029;-69
2023/10/29 05:27:00;;;;;;;1.60;1.30;;;;;;;7.21;92.60;100110.84;5027833;28;20512;-69
2023/10/29 05:29:27;;;;;;;1.58;1.30;;;;;;;7.17;91.98;100108.78;5013502;28;20071;-69
2023/10/29 05:31:52;;;;;;;2.25;1.38;;;;;;;7.04;93.84;100104.97;5012682;28;20121;-69
2023/10/29 05:34:18;;;;;;;1.67;1.30;;;;;;;6.95;93.07;100108.78;5019145;28;20060;-69
2023/10/29 05:36:43;;;;;;;2.75;1.20;;;;;;;7.12;93.19;100096.00;5014053;28;20026;-69
2023/10/29 05:39:09;;;;;;;2.65;1.60;;;;;;;7.26;92.65;100096.91;5014081;28;20026;-69
2023/10/29 05:41:35;;;;;;;2.17;1.33;;;;;;;6.88;93.96;100099.06;5013503;28;20025;-69
2023/10/29 05:44:00;;;;;;;2.55;1.40;;;;;;;7.01;93.31;100093.81;5011644;28;20038;-69
2023/10/29 05:46:26;;;;;;;4.00;1.40;;;;;;;6.91;94.47;100083.44;5012993;28;20030;-69
2023/10/29 05:48:51;;;;;;;3.10;1.60;;;;;;;6.97;93.96;100060.47;5012614;28;20065;-69
2023/10/29 05:51:18;;;;;;;2.90;1.70;;;;;;;7.12;93.83;100084.44;4995170;28;20034;-69
2023/10/29 05:53:44;;;;;;;3.80;1.70;;;;;;;7.22;93.47;100074.25;5011418;28;20029;-69
2023/10/29 05:56:10;;;;;;;2.78;1.63;;;;;;;7.13;94.05;100070.06;5012852;28;20088;-70
2023/10/29 05:58:35;;;;;;;1.77;1.45;;;;;;;6.93;94.48;100056.53;5012509;28;20477;-70
2023/10/29 06:01:01;;;;;;;2.67;1.60;;;;;;;7.10;94.42;100049.88;5010981;28;20412;-69
2023/10/29 06:03:27;;;;;;;2.53;1.70;;;;;;;7.00;94.97;100036.81;4994682;28;20034;-69
2023/10/29 06:05:52;;;;;;;2.25;1.40;;;;;;;6.86;94.52;100024.38;5011816;28;20026;-69
2023/10/29 06:08:18;;;;;;;1.60;1.40;;;;;;;6.86;94.84;100032.41;5010836;28;20084;-69
2023/10/29 06:10:44;;;;;;;4.47;1.55;;;;;;;7.18;93.84;100052.38;5010611;28;20432;-69
2023/10/29 06:13:10;;;;;;;2.55;1.48;;;;;;;7.04;93.76;100035.41;5011364;28;20057;-69
2023/10/29 06:15:36;;;;;;;3.15;1.75;;;;;;;7.17;93.33;100049.91;5009617;28;20124;-69
2023/10/29 06:18:04;;;;;;;2.80;1.50;;;;;;;7.17;93.33;100050.72;5010448;28;20030;-69
2023/10/29 06:20:29;;;;;;;2.17;1.30;;;;;;;6.91;93.61;100050.53;5010567;28;20516;-69
2023/10/29 06:22:55;;;;;;;2.17;1.40;;;;;;;6.84;95.28;100053.16;5027175;28;20063;-69
2023/10/29 06:25:21;;;;;;;3.53;1.48;;;;;;;6.93;95.08;100043.97;4994884;28;20033;-69
2023/10/29 06:27:46;;;;;;;1.48;1.20;;;;;;;6.79;95.72;100037.72;5027342;28;20026;-69
2023/10/29 06:30:12;;;;;;;3.20;1.50;;;;;;;6.86;95.28;100047.63;5008069;28;20034;-68
2023/10/29 06:32:37;;;;;;;2.85;1.30;;;;;;;6.89;95.04;100047.22;5010249;28;20525;-66
2023/10/29 06:35:03;;;;;;;5.68;1.75;;;;;;;7.06;94.05;100043.25;5010354;28;20378;-68
2023/10/29 06:37:29;;;;;;;2.50;1.20;;;;;;;6.99;94.28;100047.75;5011683;28;20485;-67
2023/10/29 06:39:55;;;;;;;1.73;1.20;;;;;;;7.00;93.16;100044.84;5010683;28;20080;-68
2023/10/29 06:42:20;;;;;;;4.72;1.25;;;;;;;7.05;93.92;100049.59;5010599;28;20045;-68
2023/10/29 06:44:46;;;;;;;2.33;1.20;;;;;;;7.06;93.52;100052.09;5010359;28;20441;-69
2023/10/29 06:47:13;;;;;;;2.03;1.42;;;;;;;6.89;94.50;100041.88;5015942;28;20048;-69
2023/10/29 06:49:38;;;;;;;3.60;1.55;;;;;;;7.21;93.38;100048.50;5020752;28;20050;-68
2023/10/29 06:52:04;;;;;;;1.77;1.45;;;;;;;6.85;95.27;100051.31;5012298;28;20092;-68
2023/10/29 06:54:30;;;;;;;2.80;1.40;;;;;;;7.35;92.75;100052.06;5010957;28;20396;-68
2023/10/29 06:56:56;;;;;;;3.45;1.60;;;;;;;7.15;92.76;100047.44;4994162;28;20026;-68
2023/10/29 06:59:21;;;;;;;3.83;1.50;;;;;;;7.11;93.71;100048.00;5011659;28;20114;-70
2023/10/29 07:01:47;;;;;;;4.05;1.20;;;;;;;7.01;94.36;100046.50;5009806;28;20489;-70
2023/10/29 07:04:13;;;;;;;1.85;1.35;;;;;;;7.20;93.56;100053.03;5009781;28;20121;-68
2023/10/29 07:06:38;;;;;;;1.75;1.45;;;;;;;7.05;93.72;100021.03;5007828;28;20057;-68
2023/10/29 07:09:03;;;;;;;2.42;1.45;;;;;;;7.40;92.91;100037.09;5009332;28;20034;-69
2023/10/29 07:11:29;;;;;;;2.20;1.30;;;;;;;7.03;94.44;100031.09;5013516;28;20104;-68
2023/10/29 07:13:55;;;;;;;1.98;1.10;;;;;;;6.57;93.74;99921.13;5011066;28;20112;-70
2023/10/29 07:16:20;;;;;;;2.65;1.35;;;;;;;7.16;93.87;100029.53;5012434;28;20137;-70
2023/10/29 07:18:46;;;;;;;2.47;1.42;;;;;;;7.33;93.14;100020.16;5010649;28;20555;-71
2023/10/29 07:21:12;;;;;;;2.10;1.48;;;;;;;6.91;93.85;99989.03;5008548;28;20126;-70
2023/10/29 07:23:38;;;;;;;2.85;1.50;;;;;;;6.83;96.38;100017.56;5008632;28;20076;-70
2023/10/29 07:26:03;;;;;;;2.47;1.58;;;;;;;7.16;94.40;100032.22;5009845;28;20033;-71
2023/10/29 07:28:29;;;;;;;3.75;1.40;;;;;;;7.15;94.57;100027.88;5010804;28;20100;-70
2023/10/29 07:30:57;;;;;;;4.07;1.60;;;;;;;7.19;93.21;100000.53;5008673;28;20038;-71
2023/10/29 07:33:23;;;;;;;2.13;1.27;;;;;;;7.42;93.18;100021.66;5009128;28;20037;-70
2023/10/29 07:35:48;;;;;;;2.95;1.30;;;;;;;7.13;94.36;100028.06;4997966;28;20053;-69
2023/10/29 07:38:14;;;;;;;4.30;1.20;;;;;;;7.23;93.56;100019.69;5003883;28;20098;-69
2023/10/29 07:40:39;;;;;;;1.90;1.13;;;;;;;7.28;93.36;100009.22;5007723;28;20030;-71
2023/10/29 07:43:04;;;;;;;3.97;1.20;;;;;;;7.62;91.42;100005.69;5003964;28;20486;-70
2023/10/29 07:45:31;;;;;;;1.60;1.10;;;;;;;7.27;94.06;100008.41;4990842;28;20026;-70
2023/10/29 07:47:57;;;;;;;2.45;1.48;;;;;;;7.43;93.55;100006.44;5009475;28;20100;-70
2023/10/29 07:50:22;;;;;;;2.95;1.40;;;;;;;7.42;93.58;100010.16;5010220;28;20050;-69
2023/10/29 07:52:48;;;;;;;3.53;1.20;;;;;;;7.49;93.23;100006.47;5013299;28;20029;-70
2023/10/29 07:55:13;;;;;;;2.65;1.20;;;;;;;7.30;92.95;99983.09;5008946;28;20034;-69
2023/10/29 07:57:39;;;;;;;2.30;1.20;;;;;;;7.47;93.15;99991.63;5012073;28;20489;-70
2023/10/29 08:00:08;;;;;;;3.60;1.50;;;;;;;7.29;93.85;99979.59;5012595;28;20026;-70
2023/10/29 08:02:35;;;;;;;3.53;1.25;;;;;;;7.47;93.25;99972.88;5011895;28;20030;-70
2023/10/29 08:05:00;;;;;;;3.05;1.40;;;;;;;7.84;92.13;99973.44;5016998;28;20033;-69
2023/10/29 08:07:28;;;;;;;2.80;1.20;;;;;;;7.54;92.32;99966.53;5010570;28;20401;-70
2023/10/29 08:09:56;;;;;;;2.83;1.00;;;;;;;7.60;92.09;99956.88;5012457;28;20029;-70
2023/10/29 08:12:22;;;;;;;2.53;1.20;;;;;;;7.83;91.87;99948.50;5012546;28;20037;-70
2023/10/29 08:14:47;;;;;;;2.50;1.00;;;;;;;7.55;92.40;99945.97;5027839;28;20473;-70
2023/10/29 08:17:17;;;;;;;1.67;1.20;;;;;;;7.79;91.48;99935.72;5013312;28;20033;-70
2023/10/29 08:19:43;;;;;;;1.77;1.10;;;;;;;7.71;91.67;99942.06;5014058;28;20033;-69
2023/10/29 08:22:08;;;;;;;3.30;1.17;;;;;;;7.53;92.20;99922.03;5033713;28;20030;-70
2023/10/29 08:24:33;;;;;;;1.70;1.10;;;;;;;7.52;92.99;99915.06;5018709;28;20129;-71
2023/10/29 08:26:59;;;;;;;2.00;1.20;;;;;;;7.75;91.98;99919.25;5018906;28;20034;-70
2023/10/29 08:29:26;;;;;;;2.10;1.50;;;;;;;7.72;91.00;99903.56;5012440;28;20038;-69
2023/10/29 08:31:51;;;;;;;1.80;1.15;;;;;;;7.79;92.18;99909.78;5027730;28;20117;-68
2023/10/29 08:34:17;;;;;;;4.40;1.65;;;;;;;7.73;90.69;99878.44;5027644;28;20113;-68
2023/10/29 08:36:42;;;;;;;1.55;0.90;;;;;;;8.03;89.68;99889.59;5011854;28;20034;-68
2023/10/29 08:39:09;;;;;;;2.65;1.05;;;;;;;8.02;89.57;99881.78;5010652;28;20030;-70
2023/10/29 08:41:35;;;;;;;1.20;0.90;;;;;;;8.03;90.85;99888.78;5026323;28;20038;-67
2023/10/29 08:44:00;;;;;;;3.35;1.10;;;;;;;8.11;89.72;99870.66;5027433;28;20057;-69
2023/10/29 08:46:26;;;;;;;2.13;1.00;;;;;;;7.81;91.01;99870.19;5009949;28;20420;-68
2023/10/29 08:48:51;;;;;;;2.25;0.95;;;;;;;7.88;91.56;99855.00;5025116;28;20096;-68
2023/10/29 08:51:17;;;;;;;2.20;1.08;;;;;;;8.12;90.40;99860.75;5010725;28;20045;-68
2023/10/29 08:53:43;;;;;;;2.80;0.80;;;;;;;8.00;90.76;99850.66;5009870;28;20050;-69
2023/10/29 08:56:09;;;;;;;2.30;1.20;;;;;;;7.96;92.05;99851.28;5011474;28;20440;-68
2023/10/29 08:58:34;;;;;;;1.98;1.08;;;;;;;8.18;90.83;99839.31;5010963;28;20133;-68
2023/10/29 09:00:59;;;;;;;1.40;0.90;;;;;;;7.82;91.95;99839.72;5010702;28;20022;-68
2023/10/29 09:03:26;;;;;;;2.00;1.10;;;;;;;7.92;92.11;99842.00;5012338;28;20057;-68
2023/10/29 09:05:51;;;;;;;1.90;1.10;;;;;;;7.93;93.62;99836.44;5027853;28;20072;-68
2023/10/29 09:08:17;;;;;;;1.77;1.02;;;;;;;7.96;91.95;99829.84;5011446;28;20022;-68
2023/10/29 09:10:43;;;;;;;2.35;1.00;;;;;;;8.23;91.81;99820.75;5012389;28;20113;-69
2023/10/29 09:13:09;;;;;;;1.60;1.08;;;;;;;7.96;92.44;99809.22;5013427;28;20036;-69
2023/10/29 09:15:35;;;;;;;2.15;1.08;;;;;;;8.09;93.10;99812.94;5011205;28;20025;-68
2023/10/29 09:18:00;;;;;;;2.33;1.02;;;;;;;8.50;90.84;99809.19;5028248;28;20124;-68
2023/10/29 09:20:25;;;;;;;1.75;1.20;;;;;;;8.14;92.36;99802.41;5043876;28;20060;-68
2023/10/29 09:22:51;;;;;;;2.67;1.60;;;;;;;7.97;94.11;99775.22;5012707;28;20064;-68
2023/10/29 09:25:16;;;;;;;30.00;12.63;;;;;;;7.91;95.27;99795.66;5028207;28;20041;-69
2023/10/29 09:27:41;;;;;;;36.70;14.02;;;;;;;7.92;95.95;99769.69;5011655;28;20053;-69
2023/10/29 09:30:08;;;;;;;6.70;2.97;;;;;;;7.95;96.22;99788.84;5010409;28;20410;-68
2023/10/29 09:32:36;;;;;;;13.90;6.13;;;;;;;7.98;96.04;99779.56;5011412;28;20033;-69
2023/10/29 09:35:04;;;;;;;10.15;5.18;;;;;;;7.83;96.87;99779.78;5012419;28;20029;-69
2023/10/29 09:37:32;;;;;;;13.35;5.20;;;;;;;7.93;96.82;99766.78;5009826;28;20030;-69
2023/10/29 09:39:58;;;;;;;3.90;2.78;;;;;;;7.73;97.64;99785.53;5012496;28;20030;-69
2023/10/29 09:42:29;;;;;;;5.40;3.53;;;;;;;8.00;97.72;99770.28;5011677;28;20036;-69
2023/10/29 09:44:59;;;;;;;13.32;7.53;;;;;;;7.82;96.88;99748.66;5027258;28;20402;-69
2023/10/29 09:47:27;;;;;;;19.13;10.50;;;;;;;8.21;95.36;99752.31;5011527;28;20128;-69
2023/10/29 09:49:54;;;;;;;5.97;4.22;;;;;;;8.07;96.67;99758.72;5012022;28;20069;-69
2023/10/29 09:52:28;;;;;;;3.55;2.25;;;;;;;8.15;95.38;99734.41;5012071;28;20513;-69
2023/10/29 09:54:56;;;;;;;13.23;9.18;;;;;;;8.02;95.93;99713.00;5011980;28;20067;-69
2023/10/29 09:57:21;;;;;;;36.38;22.10;;;;;;;8.16;96.83;99744.91;5013077;28;20068;-69
2023/10/29 09:59:47;;;;;;;19.30;15.52;;;;;;;7.94;99.05;99727.44;5011935;28;20432;-69
2023/10/29 10:02:14;;;;;;;13.02;8.77;;;;;;;7.76;100.00;99722.72;5012499;28;20034;-69
2023/10/29 10:04:39;;;;;;;7.40;4.50;;;;;;;8.03;98.47;99726.19;5027388;28;20096;-70
2023/10/29 10:07:05;;;;;;;2.50;1.63;;;;;;;7.65;100.00;99712.63;5012566;28;20058;-70
2023/10/29 10:09:54;;;;;;;3.08;1.30;;;;;;;7.98;100.00;99726.00;5027089;28;20038;-70
2023/10/29 10:12:20;;;;;;;2.47;1.33;;;;;;;7.94;99.58;99698.78;5027367;28;20084;-70
2023/10/29 10:14:47;;;;;;;3.22;1.50;;;;;;;7.86;100.00;99720.44;5012072;28;20026;-69
2023/10/29 10:17:12;;;;;;;1.88;1.20;;;;;;;8.04;99.82;99724.31;5011896;28;20079;-70
2023/10/29 10:19:39;;;;;;;2.25;1.27;;;;;;;7.86;100.00;99717.75;5011575;28;20635;-69
2023/10/29 10:22:05;;;;;;;2.65;1.38;;;;;;;7.95;100.00;99711.16;5008457;28;20029;-69
2023/10/29 10:24:43;;;;;;;1.88;1.30;;;;;;;7.76;100.00;99712.81;5024891;28;20036;-69
2023/10/29 10:27:09;;;;;;;2.63;1.45;;;;;;;7.38;100.00;99677.81;5011148;28;20025;-70
2023/10/29 10:29:35;;;;;;;3.40;2.85;;;;;;;7.60;100.00;99701.72;5024839;28;20507;-70
2023/10/29 10:32:06;;;;;;;2.63;1.40;;;;;;;7.93;100.00;99691.78;5010984;28;20018;-69
2023/10/29 10:34:39;;;;;;;1.88;1.20;;;;;;;7.81;100.00;99697.97;5010330;28;20088;-68
2023/10/29 10:37:04;;;;;;;2.33;1.45;;;;;;;7.70;100.00;99686.06;5009584;28;20068;-69
2023/10/29 10:39:31;;;;;;;1.80;1.40;;;;;;;7.76;100.00;99694.09;5008856;28;20033;-70
2023/10/29 10:41:59;;;;;;;3.35;1.65;;;;;;;7.30;100.00;99675.38;5023973;28;20030;-70
2023/10/29 10:44:27;;;;;;;2.45;1.63;;;;;;;7.54;100.00;99685.44;5008563;28;20017;-70
2023/10/29 10:46:58;;;;;;;1.35;1.00;;;;;;;7.53;100.00;99674.94;5024160;28;20038;-70
2023/10/29 10:49:24;;;;;;;1.48;1.20;;;;;;;7.58;100.00;99671.63;5024442;28;20065;-71
2023/10/29 10:52:01;;;;;;;1.73;1.30;;;;;;;7.77;100.00;99678.84;5009754;28;20045;-70
2023/10/29 10:54:26;;;;;;;2.22;1.17;;;;;;;7.65;100.00;99675.13;5028628;28;20018;-71
2023/10/29 10:56:55;;;;;;;1.30;1.10;;;;;;;7.43;100.00;99653.94;5017589;28;20104;-71
2023/10/29 10:59:21;;;;;;;1.48;1.10;;;;;;;7.49;100.00;99663.84;5023395;28;20045;-70
2023/10/29 11:01:48;;;;;;;1.90;1.40;;;;;;;7.83;100.00;99664.59;5011150;28;20151;-70
2023/10/29 11:04:14;;;;;;;1.55;1.40;;;;;;;7.57;100.00;99646.72;5009594;28;20436;-71
2023/10/29 11:06:41;;;;;;;1.55;1.20;;;;;;;7.46;100.00;99639.34;5026720;28;20029;-70
2023/10/29 11:09:12;;;;;;;2.60;1.40;;;;;;;7.86;100.00;99607.94;5010392;28;20481;-71
2023/10/29 11:11:46;;;;;;;2.80;1.33;;;;;;;7.51;100.00;99616.25;5011380;28;20042;-71
2023/10/29 11:14:22;;;;;;;1.97;1.37;;;;;;;7.53;100.00;99616.88;5011232;28;20100;-71
2023/10/29 11:16:55;;;;;;;2.65;1.40;;;;;;;7.77;100.00;99599.31;5025911;28;20270;-70
2023/10/29 11:19:37;;;;;;;1.73;1.23;;;;;;;7.82;100.00;99604.06;5010832;28;20068;-71
2023/10/29 11:22:13;;;;;;;2.35;1.50;;;;;;;7.56;100.00;99591.56;5026233;28;20092;-69
2023/10/29 11:24:38;;;;;;;1.73;1.17;;;;;;;7.43;100.00;99591.56;5025733;28;20140;-71
2023/10/29 11:27:35;;;;;;;2.15;0.90;;;;;;;7.27;100.00;99571.41;4977836;28;20475;-72
2023/10/29 11:30:29;;;;;;;1.88;1.40;;;;;;;7.40;100.00;99598.16;5010530;28;20030;-71